KNRS

Imperial Beach Nolf (Ream Field) Airport

Imperial Beach, California, USA
METAR KNRS 221656Z 22007KT 10SM FEW022 BKN036 17/09 A2995 RMK AO2 SLP140 T01670094
Observed Flight Rules
May-22 @ 16:56 UTC (47 minutes ago) Visual Flight Rules
Wind Visibility Clouds
220° at 7 knots 10 miles
  • Few at 2,200' AGL
  • Broken at 3,600' AGL
Temperatures Readings
Current 17°C / 63°F
Dewpoint 9°C / 48°F
Humidity 59%
Altimeter 29.95" Hg
Pressure 1014 hPa
Elevation 7
METAR KNRS 221656Z 22007KT 10SM FEW022 BKN036 17/09 A2995 RMK AO2 SLP140 T01670094
Observed Flight Rules
May-22 @ 16:56 UTC
(47 minutes ago)
VFR
Wind Visibility
220° at 7 knots 10 miles
Clouds
  • Few at 2,200' AGL
  • Broken at 3,600' AGL
Temperature Dewpoint
17°C / 63°F 9°C / 48°F
Humidity Altimeter Pressure
59% 29.95" Hg 1014 hPa